Time,TemperatureF,DewpointF,PressureIn,WindDirection,WindDirectionDegrees,WindSpeedMPH,WindSpeedGustMPH,Humidity,HourlyPrecipIn,Conditions,Clouds,dailyrainin,SoftwareType,DateUTC
2013-05-10 00:04:00,62.1,54.0,29.84,NW,315,0.0,0.0,76,0.00,,,0.00,weatherlink.com 1.10,2013-05-10 04:04:00,
2013-05-10 00:19:00,60.7,55.0,29.84,NW,314,0.0,0.0,81,0.00,,,0.00,weatherlink.com 1.10,2013-05-10 04:19:00,
2013-05-10 00:34:00,59.9,55.0,29.83,NW,315,0.0,0.0,85,0.00,,,0.00,weatherlink.com 1.10,2013-05-10 04:34:00,
2013-05-10 00:49:00,59.3,56.0,29.83,NW,314,0.0,0.0,88,0.01,,,0.01,weatherlink.com 1.10,2013-05-10 04:49:00,
2013-05-10 01:04:00,58.8,56.0,29.83,NW,315,0.0,0.0,89,0.01,,,0.01,weatherlink.com 1.10,2013-05-10 05:04:00,
2013-05-10 01:19:00,58.7,56.0,29.83,NW,314,0.0,0.0,90,0.01,,,0.01,weatherlink.com 1.10,2013-05-10 05:19:00,
2013-05-10 01:34:00,58.5,56.0,29.82,NW,316,0.0,0.0,90,0.03,,,0.03,weatherlink.com 1.10,2013-05-10 05:34:00,
2013-05-10 01:49:00,58.5,56.0,29.83,SW,214,0.0,0.0,92,0.06,,,0.07,weatherlink.com 1.10,2013-05-10 05:49:00,
2013-05-10 02:04:00,58.2,56.0,29.82,SW,214,0.0,0.0,92,0.11,,,0.12,weatherlink.com 1.10,2013-05-10 06:04:00,
2013-05-10 02:19:00,58.0,56.0,29.81,SW,214,0.0,0.0,93,0.10,,,0.12,weatherlink.com 1.10,2013-05-10 06:19:00,
2013-05-10 02:34:00,58.0,56.0,29.80,SW,214,0.0,0.0,94,0.10,,,0.13,weatherlink.com 1.10,2013-05-10 06:34:00,
2013-05-10 02:50:00,58.0,56.0,29.79,SW,217,0.0,0.0,94,0.06,,,0.13,weatherlink.com 1.10,2013-05-10 06:50:00,
2013-05-10 03:05:00,58.0,57.0,29.78,SW,216,0.0,0.0,95,0.01,,,0.13,weatherlink.com 1.10,2013-05-10 07:05:00,
2013-05-10 03:20:00,58.0,57.0,29.78,SW,217,0.0,0.0,95,0.01,,,0.13,weatherlink.com 1.10,2013-05-10 07:20:00,
2013-05-10 03:35:00,57.8,56.0,29.77,SW,217,0.0,0.0,95,0.01,,,0.14,weatherlink.com 1.10,2013-05-10 07:35:00,
2013-05-10 03:50:00,57.4,56.0,29.77,SW,214,0.0,0.0,94,0.03,,,0.16,weatherlink.com 1.10,2013-05-10 07:50:00,
2013-05-10 04:05:00,56.7,55.0,29.76,SSW,198,0.0,0.0,94,0.04,,,0.17,weatherlink.com 1.10,2013-05-10 08:05:00,
2013-05-10 04:20:00,56.1,54.0,29.76,SSW,198,0.0,0.0,94,0.05,,,0.18,weatherlink.com 1.10,2013-05-10 08:20:00,
2013-05-10 04:35:00,55.8,54.0,29.75,SSW,201,0.0,0.0,94,0.04,,,0.18,weatherlink.com 1.10,2013-05-10 08:35:00,
2013-05-10 04:50:00,55.4,54.0,29.75,SSW,201,0.0,0.0,94,0.02,,,0.18,weatherlink.com 1.10,2013-05-10 08:50:00,
2013-05-10 05:05:00,54.9,53.0,29.74,NW,326,0.0,0.0,94,0.02,,,0.19,weatherlink.com 1.10,2013-05-10 09:05:00,
2013-05-10 05:20:00,54.4,53.0,29.74,SW,232,0.0,0.0,94,0.02,,,0.20,weatherlink.com 1.10,2013-05-10 09:20:00,
2013-05-10 05:35:00,53.9,52.0,29.74,SW,233,0.0,0.0,94,0.03,,,0.21,weatherlink.com 1.10,2013-05-10 09:35:00,
2013-05-10 05:50:00,53.9,53.0,29.74,NW,321,0.0,0.0,95,0.04,,,0.22,weatherlink.com 1.10,2013-05-10 09:50:00,
2013-05-10 06:05:00,53.8,52.0,29.73,NNW,339,0.0,0.0,95,0.03,,,0.22,weatherlink.com 1.10,2013-05-10 10:05:00,
2013-05-10 06:20:00,53.8,52.0,29.73,NW,312,0.0,0.0,95,0.02,,,0.22,weatherlink.com 1.10,2013-05-10 10:20:00,
2013-05-10 06:35:00,53.7,52.0,29.74,NNW,347,0.0,0.0,95,0.02,,,0.23,weatherlink.com 1.10,2013-05-10 10:35:00,
2013-05-10 06:50:00,53.7,52.0,29.74,NNE,27,0.0,0.0,95,0.02,,,0.24,weatherlink.com 1.10,2013-05-10 10:50:00,
2013-05-10 07:05:00,53.5,52.0,29.74,NNW,336,0.0,1.0,95,0.03,,,0.25,weatherlink.com 1.10,2013-05-10 11:05:00,
2013-05-10 07:20:00,53.0,52.0,29.74,NW,314,0.0,2.0,95,0.04,,,0.26,weatherlink.com 1.10,2013-05-10 11:20:00,
2013-05-10 07:35:00,52.7,51.0,29.74,NNW,335,1.0,1.0,95,0.03,,,0.26,weatherlink.com 1.10,2013-05-10 11:35:00,
2013-05-10 07:50:00,51.5,50.0,29.75,SSE,162,0.0,3.0,94,0.02,,,0.26,weatherlink.com 1.10,2013-05-10 11:50:00,
2013-05-10 08:05:00,50.3,49.0,29.75,North,350,0.0,2.0,94,0.01,,,0.26,weatherlink.com 1.10,2013-05-10 12:05:00,
2013-05-10 08:20:00,49.9,48.0,29.75,SE,125,0.0,2.0,94,0.00,,,0.26,weatherlink.com 1.10,2013-05-10 12:20:00,
2013-05-10 08:35:00,48.7,47.0,29.76,ESE,106,0.0,2.0,94,0.00,,,0.26,weatherlink.com 1.10,2013-05-10 12:35:00,
2013-05-10 08:50:00,48.2,47.0,29.76,SE,124,0.0,2.0,94,0.00,,,0.26,weatherlink.com 1.10,2013-05-10 12:50:00,
2013-05-10 09:05:00,48.0,46.0,29.76,NE,48,0.0,2.0,94,0.00,,,0.26,weatherlink.com 1.10,2013-05-10 13:05:00,
2013-05-10 09:20:00,48.0,47.0,29.77,West,270,0.0,0.0,95,0.00,,,0.26,weatherlink.com 1.10,2013-05-10 13:20:00,
2013-05-10 09:35:00,48.0,47.0,29.77,SSW,194,0.0,2.0,95,0.01,,,0.27,weatherlink.com 1.10,2013-05-10 13:35:00,
2013-05-10 09:50:00,47.4,46.0,29.77,NNW,336,0.0,3.0,94,0.01,,,0.27,weatherlink.com 1.10,2013-05-10 13:50:00,
2013-05-10 10:06:00,47.3,46.0,29.77,West,281,0.0,2.0,94,0.01,,,0.27,weatherlink.com 1.10,2013-05-10 14:06:00,
2013-05-10 10:21:00,47.1,46.0,29.77,WNW,290,0.0,1.0,94,0.01,,,0.27,weatherlink.com 1.10,2013-05-10 14:21:00,
2013-05-10 10:36:00,46.8,45.0,29.77,SSE,157,1.0,2.0,94,0.00,,,0.27,weatherlink.com 1.10,2013-05-10 14:36:00,
2013-05-10 10:51:00,46.3,45.0,29.78,North,5,2.0,4.0,94,0.01,,,0.28,weatherlink.com 1.10,2013-05-10 14:51:00,
2013-05-10 11:06:00,45.7,44.0,29.79,WSW,256,4.0,4.0,94,0.04,,,0.31,weatherlink.com 1.10,2013-05-10 15:06:00,
2013-05-10 11:21:00,45.5,44.0,29.79,NW,309,0.0,2.0,94,0.09,,,0.36,weatherlink.com 1.10,2013-05-10 15:21:00,
2013-05-10 11:36:00,45.6,44.0,29.80,NNW,329,2.0,2.0,95,0.10,,,0.37,weatherlink.com 1.10,2013-05-10 15:36:00,
2013-05-10 11:51:00,45.5,44.0,29.81,SSE,151,0.0,1.0,95,0.09,,,0.37,weatherlink.com 1.10,2013-05-10 15:51:00,
2013-05-10 12:06:00,45.6,44.0,29.82,SSE,149,2.0,3.0,95,0.07,,,0.38,weatherlink.com 1.10,2013-05-10 16:06:00,
2013-05-10 12:21:00,45.3,44.0,29.82,WNW,296,0.0,0.0,94,0.02,,,0.38,weatherlink.com 1.10,2013-05-10 16:21:00,
2013-05-10 12:36:00,45.2,44.0,29.81,SSE,162,0.0,0.0,94,0.01,,,0.38,weatherlink.com 1.10,2013-05-10 16:36:00,
2013-05-10 12:51:00,45.5,44.0,29.81,NW,326,0.0,0.0,95,0.02,,,0.39,weatherlink.com 1.10,2013-05-10 16:51:00,
2013-05-10 13:06:00,45.2,44.0,29.81,ENE,64,0.0,4.0,94,0.01,,,0.39,weatherlink.com 1.10,2013-05-10 17:06:00,
2013-05-10 13:21:00,45.1,44.0,29.81,NW,312,0.0,0.0,95,0.01,,,0.39,weatherlink.com 1.10,2013-05-10 17:21:00,
2013-05-10 13:36:00,44.9,43.0,29.81,NNW,334,0.0,0.0,94,0.01,,,0.39,weatherlink.com 1.10,2013-05-10 17:36:00,
2013-05-10 13:51:00,44.7,43.0,29.82,SSE,165,0.0,2.0,94,0.00,,,0.39,weatherlink.com 1.10,2013-05-10 17:51:00,
2013-05-10 14:06:00,44.9,43.0,29.83,NNE,30,0.0,2.0,94,0.00,,,0.39,weatherlink.com 1.10,2013-05-10 18:06:00,
2013-05-10 14:21:00,45.0,43.0,29.83,NNW,348,0.0,0.0,94,0.00,,,0.39,weatherlink.com 1.10,2013-05-10 18:21:00,
2013-05-10 14:36:00,45.1,44.0,29.84,NNE,13,0.0,0.0,94,0.00,,,0.39,weatherlink.com 1.10,2013-05-10 18:36:00,
2013-05-10 14:51:00,45.2,44.0,29.84,WSW,249,0.0,0.0,94,0.00,,,0.39,weatherlink.com 1.10,2013-05-10 18:51:00,
2013-05-10 15:06:00,45.6,44.0,29.84,SSW,205,0.0,0.0,94,0.00,,,0.39,weatherlink.com 1.10,2013-05-10 19:06:00,
2013-05-10 15:21:00,45.9,44.0,29.84,SSW,205,0.0,0.0,94,0.01,,,0.40,weatherlink.com 1.10,2013-05-10 19:21:00,
2013-05-10 15:36:00,45.8,44.0,29.84,NE,55,0.0,3.0,94,0.01,,,0.40,weatherlink.com 1.10,2013-05-10 19:36:00,
2013-05-10 15:51:00,46.1,45.0,29.84,SSE,161,0.0,1.0,94,0.01,,,0.40,weatherlink.com 1.10,2013-05-10 19:51:00,
2013-05-10 16:06:00,46.0,44.0,29.84,SE,138,0.0,0.0,94,0.01,,,0.40,weatherlink.com 1.10,2013-05-10 20:06:00,
2013-05-10 16:21:00,45.9,44.0,29.84,SE,127,0.0,3.0,94,0.00,,,0.40,weatherlink.com 1.10,2013-05-10 20:21:00,
2013-05-10 16:36:00,45.6,44.0,29.84,NNW,337,0.0,0.0,93,0.00,,,0.40,weatherlink.com 1.10,2013-05-10 20:36:00,
2013-05-10 16:51:00,45.4,44.0,29.84,NNE,18,0.0,0.0,93,0.00,,,0.40,weatherlink.com 1.10,2013-05-10 20:51:00,
2013-05-10 17:06:00,45.7,44.0,29.84,WNW,283,0.0,0.0,94,0.01,,,0.41,weatherlink.com 1.10,2013-05-10 21:06:00,
2013-05-10 17:21:00,46.2,45.0,29.84,West,262,0.0,0.0,94,0.01,,,0.41,weatherlink.com 1.10,2013-05-10 21:21:00,
2013-05-10 17:36:00,46.1,44.0,29.84,SE,142,0.0,0.0,93,0.01,,,0.41,weatherlink.com 1.10,2013-05-10 21:36:00,
2013-05-10 17:51:00,46.1,44.0,29.84,SE,143,0.0,0.0,93,0.01,,,0.41,weatherlink.com 1.10,2013-05-10 21:51:00,
2013-05-10 18:06:00,46.2,44.0,29.84,SSW,192,0.0,0.0,93,0.00,,,0.41,weatherlink.com 1.10,2013-05-10 22:06:00,
2013-05-10 18:21:00,46.3,45.0,29.84,East,96,0.0,2.0,94,0.00,,,0.41,weatherlink.com 1.10,2013-05-10 22:21:00,
2013-05-10 18:36:00,46.2,44.0,29.84,WSW,250,0.0,2.0,93,0.00,,,0.41,weatherlink.com 1.10,2013-05-10 22:36:00,
2013-05-10 18:51:00,46.2,44.0,29.84,SE,139,0.0,1.0,93,0.00,,,0.41,weatherlink.com 1.10,2013-05-10 22:51:00,
2013-05-10 19:06:00,46.2,44.0,29.84,South,176,0.0,0.0,93,0.00,,,0.41,weatherlink.com 1.10,2013-05-10 23:06:00,
2013-05-10 19:21:00,46.3,44.0,29.85,NNW,340,0.0,1.0,93,0.00,,,0.41,weatherlink.com 1.10,2013-05-10 23:21:00,
2013-05-10 19:36:00,46.5,45.0,29.85,ESE,108,0.0,0.0,93,0.00,,,0.41,weatherlink.com 1.10,2013-05-10 23:36:00,
2013-05-10 19:51:00,46.4,44.0,29.86,SW,225,0.0,1.0,92,0.00,,,0.41,weatherlink.com 1.10,2013-05-10 23:51:00,
2013-05-10 20:06:00,46.3,44.0,29.86,SE,143,0.0,0.0,92,0.00,,,0.41,weatherlink.com 1.10,2013-05-11 00:06:00,
2013-05-10 20:21:00,46.0,44.0,29.87,SE,142,0.0,0.0,92,0.00,,,0.41,weatherlink.com 1.10,2013-05-11 00:21:00,
2013-05-10 20:36:00,46.0,44.0,29.88,SE,143,0.0,0.0,93,0.00,,,0.41,weatherlink.com 1.10,2013-05-11 00:36:00,
2013-05-10 20:51:00,45.9,44.0,29.88,SE,144,0.0,0.0,93,0.00,,,0.41,weatherlink.com 1.10,2013-05-11 00:51:00,
2013-05-10 21:06:00,45.9,44.0,29.88,SE,143,0.0,0.0,93,0.00,,,0.41,weatherlink.com 1.10,2013-05-11 01:06:00,
2013-05-10 21:21:00,45.8,44.0,29.88,North,354,0.0,0.0,93,0.00,,,0.41,weatherlink.com 1.10,2013-05-11 01:21:00,
2013-05-10 21:36:00,45.7,44.0,29.89,SE,145,0.0,0.0,93,0.00,,,0.41,weatherlink.com 1.10,2013-05-11 01:36:00,
2013-05-10 21:51:00,45.6,44.0,29.89,SE,145,0.0,0.0,92,0.00,,,0.41,weatherlink.com 1.10,2013-05-11 01:51:00,
2013-05-10 22:06:00,45.6,44.0,29.89,SE,145,0.0,0.0,92,0.00,,,0.41,weatherlink.com 1.10,2013-05-11 02:06:00,
2013-05-10 22:21:00,45.6,44.0,29.89,SE,145,0.0,0.0,92,0.00,,,0.41,weatherlink.com 1.10,2013-05-11 02:21:00,
2013-05-10 22:36:00,45.5,44.0,29.89,SE,145,0.0,0.0,93,0.00,,,0.41,weatherlink.com 1.10,2013-05-11 02:36:00,
2013-05-10 22:51:00,45.4,44.0,29.89,SE,146,0.0,0.0,93,0.00,,,0.41,weatherlink.com 1.10,2013-05-11 02:51:00,
2013-05-10 23:06:00,45.2,43.0,29.89,SE,145,0.0,0.0,93,0.00,,,0.41,weatherlink.com 1.10,2013-05-11 03:06:00,
2013-05-10 23:21:00,45.3,44.0,29.89,SE,145,0.0,0.0,94,0.00,,,0.41,weatherlink.com 1.10,2013-05-11 03:21:00,
2013-05-10 23:36:00,45.2,44.0,29.89,SE,145,0.0,0.0,94,0.00,,,0.41,weatherlink.com 1.10,2013-05-11 03:36:00,
2013-05-10 23:51:00,45.2,44.0,29.89,SE,145,0.0,0.0,94,0.00,,,0.41,weatherlink.com 1.10,2013-05-11 03:51:00,